Time;durP1;ratioP1;P1;durP2;ratioP2;P2;SDS_P1;SDS_P2;PMS_P1;PMS_P2;Temp;Humidity;BMP_temperature;BMP_pressure;BME280_temperature;BME280_humidity;BME280_pressure;Samples;Min_cycle;Max_cycle;Signal;HPM_P1;HPM_P2
2023/05/07 00:01:31;;;;;;;10.43;7.90;;;;;;;-145.41;100.00;58600.66;4994438;28;20050;-78
2023/05/07 00:03:56;;;;;;;10.15;7.57;;;;;;;-145.41;100.00;58600.66;4993458;28;20039;-78
2023/05/07 00:06:22;;;;;;;9.98;7.85;;;;;;;-145.41;100.00;58600.66;4990680;28;20077;-79
2023/05/07 00:08:48;;;;;;;10.65;7.97;;;;;;;-145.41;100.00;58600.66;4991637;28;20047;-77
2023/05/07 00:11:13;;;;;;;13.05;9.02;;;;;;;-145.41;100.00;58600.66;4997931;28;20050;-78
2023/05/07 00:13:38;;;;;;;12.60;8.82;;;;;;;-145.41;100.00;58600.66;4994353;28;20074;-78
2023/05/07 00:16:04;;;;;;;11.15;7.55;;;;;;;-145.41;100.00;58600.66;4982370;28;20102;-78
2023/05/07 00:18:30;;;;;;;10.32;7.85;;;;;;;-145.41;100.00;58600.66;4977188;28;20092;-77
2023/05/07 00:20:56;;;;;;;13.68;9.65;;;;;;;-145.41;100.00;58600.66;4993013;28;20039;-78
2023/05/07 00:23:21;;;;;;;12.70;8.63;;;;;;;-145.41;100.00;58600.66;4994503;28;20034;-78
2023/05/07 00:25:47;;;;;;;11.23;7.63;;;;;;;-145.41;100.00;58600.66;4993557;28;20037;-77
2023/05/07 00:28:12;;;;;;;11.48;8.48;;;;;;;-145.41;100.00;58600.66;4998235;28;20034;-78
2023/05/07 00:30:37;;;;;;;9.55;6.43;;;;;;;-145.41;100.00;58600.66;4988120;28;20556;-78
2023/05/07 00:33:03;;;;;;;10.98;7.40;;;;;;;-145.41;100.00;58600.66;4988992;28;20030;-78
2023/05/07 00:35:29;;;;;;;10.88;8.07;;;;;;;-145.41;100.00;58600.66;5011287;23;20046;-79
2023/05/07 00:37:55;;;;;;;10.70;7.65;;;;;;;-145.41;100.00;58600.66;5003068;28;20038;-78
2023/05/07 00:40:20;;;;;;;10.55;7.70;;;;;;;-145.41;100.00;58600.66;4988813;28;20037;-78
2023/05/07 00:42:46;;;;;;;8.98;6.82;;;;;;;-145.41;100.00;58600.66;4986232;28;20040;-78
2023/05/07 00:45:13;;;;;;;11.30;8.13;;;;;;;-145.41;100.00;58600.66;4996773;28;20509;-78
2023/05/07 00:47:39;;;;;;;10.13;7.25;;;;;;;-145.41;100.00;58600.66;4972632;28;20072;-79
2023/05/07 00:50:05;;;;;;;11.40;8.32;;;;;;;-145.41;100.00;58600.66;4984204;28;20109;-78
2023/05/07 00:52:31;;;;;;;8.15;6.45;;;;;;;-145.41;100.00;58600.66;4972534;28;20074;-79
2023/05/07 00:54:56;;;;;;;10.85;7.22;;;;;;;-145.41;100.00;58600.66;4984452;28;20041;-79
2023/05/07 00:57:24;;;;;;;9.57;6.68;;;;;;;-145.41;100.00;58600.66;4968321;28;20027;-78
2023/05/07 00:59:51;;;;;;;10.93;8.10;;;;;;;-145.41;100.00;58600.66;4970576;28;20038;-78
2023/05/07 01:02:16;;;;;;;11.35;8.70;;;;;;;-145.41;100.00;58600.66;4971435;28;20451;-78
2023/05/07 01:04:41;;;;;;;11.05;6.80;;;;;;;-145.41;100.00;58600.66;4985080;28;20038;-78
2023/05/07 01:07:07;;;;;;;14.88;8.15;;;;;;;-145.41;100.00;58600.66;4984261;28;20145;-78
2023/05/07 01:09:35;;;;;;;11.77;8.60;;;;;;;-145.41;100.00;58600.66;4967548;28;20081;-78
2023/05/07 01:12:00;;;;;;;11.05;7.70;;;;;;;-145.41;100.00;58600.66;4988468;28;20034;-78
2023/05/07 01:14:26;;;;;;;11.02;8.00;;;;;;;-145.41;100.00;58600.66;4966897;28;20184;-78
2023/05/07 01:16:53;;;;;;;10.25;7.65;;;;;;;-145.41;100.00;58600.66;4968146;28;20084;-78
2023/05/07 01:19:20;;;;;;;11.60;7.63;;;;;;;-145.41;100.00;58600.66;4965975;28;20039;-78
2023/05/07 01:21:48;;;;;;;10.57;8.07;;;;;;;-145.41;100.00;58600.66;4986158;28;20512;-78
2023/05/07 01:24:15;;;;;;;13.52;8.95;;;;;;;-145.41;100.00;58600.66;4969342;28;20066;-78
2023/05/07 01:26:42;;;;;;;11.57;7.78;;;;;;;-145.41;100.00;58600.66;4969066;28;20061;-79
2023/05/07 01:29:07;;;;;;;12.98;8.57;;;;;;;-145.41;100.00;58600.66;4965847;28;20038;-78
2023/05/07 01:31:34;;;;;;;10.70;7.63;;;;;;;-145.41;100.00;58600.66;4976470;28;20505;-79
2023/05/07 01:34:01;;;;;;;11.95;8.40;;;;;;;-145.41;100.00;58600.66;4968907;28;20042;-78
2023/05/07 01:36:28;;;;;;;11.48;7.70;;;;;;;-145.41;100.00;58600.66;4965434;28;20089;-79
2023/05/07 01:38:54;;;;;;;12.60;8.60;;;;;;;-145.41;100.00;58600.66;4984862;28;20046;-78
2023/05/07 01:41:21;;;;;;;13.50;8.98;;;;;;;-145.41;100.00;58600.66;4983828;28;20050;-79
2023/05/07 01:43:47;;;;;;;13.52;8.93;;;;;;;-145.41;100.00;58600.66;4968710;28;20114;-79
2023/05/07 01:46:12;;;;;;;13.38;8.88;;;;;;;-145.41;100.00;58600.66;4969440;28;20036;-78
2023/05/07 01:48:38;;;;;;;12.25;8.35;;;;;;;-145.41;100.00;58600.66;4984315;28;20109;-78
2023/05/07 01:51:05;;;;;;;11.52;7.75;;;;;;;-145.41;100.00;58600.66;4983967;28;20101;-79
2023/05/07 01:53:36;;;;;;;12.93;6.93;;;;;;;-145.41;100.00;58600.66;4970246;28;20114;-78
2023/05/07 01:56:02;;;;;;;10.32;7.30;;;;;;;-145.41;100.00;58600.66;4982768;28;20109;-78
2023/05/07 01:58:27;;;;;;;10.15;6.78;;;;;;;-145.41;100.00;58600.66;4967970;28;20476;-79
2023/05/07 02:00:53;;;;;;;9.90;6.95;;;;;;;-145.41;100.00;58600.66;4972897;28;20429;-78
2023/05/07 02:03:18;;;;;;;11.60;6.40;;;;;;;-145.41;100.00;58600.66;4976220;28;20056;-78
2023/05/07 02:05:52;;;;;;;9.13;6.50;;;;;;;-145.41;100.00;58600.66;4972726;28;20382;-79
2023/05/07 02:08:25;;;;;;;9.57;6.50;;;;;;;-145.41;100.00;58600.66;4959174;28;20413;-78
2023/05/07 02:10:51;;;;;;;8.55;6.05;;;;;;;-145.41;100.00;58600.66;4983717;28;20048;-78
2023/05/07 02:13:16;;;;;;;7.93;5.82;;;;;;;-145.41;100.00;58600.66;4983676;28;20038;-78
2023/05/07 02:15:42;;;;;;;9.95;5.90;;;;;;;-145.41;100.00;58600.66;4974737;28;20122;-78
2023/05/07 02:18:08;;;;;;;11.85;6.00;;;;;;;-145.41;100.00;58600.66;4965895;28;20038;-79
2023/05/07 02:20:35;;;;;;;8.07;5.82;;;;;;;-145.41;100.00;58600.66;4950732;28;20390;-78
2023/05/07 02:23:01;;;;;;;8.45;5.18;;;;;;;-145.41;100.00;58600.66;4965391;28;20453;-79
2023/05/07 02:25:29;;;;;;;6.90;4.55;;;;;;;-145.41;100.00;58600.66;4969643;28;20122;-78
2023/05/07 02:27:55;;;;;;;8.18;5.13;;;;;;;-145.41;100.00;58600.66;4975996;28;20030;-78
2023/05/07 02:30:25;;;;;;;7.57;5.10;;;;;;;-145.41;100.00;58600.66;4968558;28;20030;-79
2023/05/07 02:32:52;;;;;;;7.15;4.68;;;;;;;-145.41;100.00;58600.66;4956462;28;20039;-79
2023/05/07 02:35:18;;;;;;;9.30;5.15;;;;;;;-145.41;100.00;58600.66;4974785;28;20447;-79
2023/05/07 02:37:43;;;;;;;7.15;4.97;;;;;;;-145.41;100.00;58600.66;4977571;28;21167;-79
2023/05/07 02:40:09;;;;;;;8.05;5.13;;;;;;;-145.41;100.00;58600.66;4980645;28;20035;-78
2023/05/07 02:42:35;;;;;;;7.00;4.88;;;;;;;-145.41;100.00;58600.66;4970414;28;20041;-78
2023/05/07 02:45:00;;;;;;;8.63;4.47;;;;;;;-145.41;100.00;58600.66;4984917;28;20109;-79
2023/05/07 02:47:29;;;;;;;6.53;4.63;;;;;;;-145.41;100.00;58600.66;4973921;28;20064;-78
2023/05/07 02:49:55;;;;;;;6.65;4.80;;;;;;;-145.41;100.00;58600.66;4965351;28;20516;-78
2023/05/07 02:52:21;;;;;;;6.30;4.22;;;;;;;-145.41;100.00;58600.66;4949906;28;20038;-79
2023/05/07 02:54:46;;;;;;;6.70;4.45;;;;;;;-145.41;100.00;58600.66;4984933;28;20046;-79
2023/05/07 02:57:11;;;;;;;8.15;4.85;;;;;;;-145.41;100.00;58600.66;4957913;28;20066;-79
2023/05/07 02:59:37;;;;;;;7.32;5.18;;;;;;;-145.41;100.00;58600.66;4974381;28;20034;-78
2023/05/07 03:02:02;;;;;;;7.28;5.10;;;;;;;-145.41;100.00;58600.66;4965415;28;20034;-78
2023/05/07 03:04:28;;;;;;;7.57;5.03;;;;;;;-145.41;100.00;58600.66;4972106;28;20064;-79
2023/05/07 03:06:53;;;;;;;7.53;4.88;;;;;;;-145.41;100.00;58600.66;4964578;28;20081;-79
2023/05/07 03:09:19;;;;;;;7.75;5.50;;;;;;;-145.41;100.00;58600.66;4983137;28;20039;-78
2023/05/07 03:11:44;;;;;;;6.97;5.15;;;;;;;-145.41;100.00;58600.66;4972777;28;20062;-79
2023/05/07 03:14:10;;;;;;;6.30;4.25;;;;;;;-145.41;100.00;58600.66;4965929;28;20030;-79
2023/05/07 03:16:36;;;;;;;8.27;5.20;;;;;;;-145.41;100.00;58600.66;4982267;28;20027;-78
2023/05/07 03:19:01;;;;;;;7.20;4.93;;;;;;;-145.41;100.00;58600.66;4985123;28;20042;-78
2023/05/07 03:21:28;;;;;;;8.07;4.82;;;;;;;-145.41;100.00;58600.66;4958286;28;20172;-78
2023/05/07 03:23:53;;;;;;;6.38;4.70;;;;;;;-145.41;100.00;58600.66;4959546;28;20109;-79
2023/05/07 03:26:19;;;;;;;7.10;5.18;;;;;;;-145.41;100.00;58600.66;4971969;28;20105;-78
2023/05/07 03:28:45;;;;;;;6.57;5.07;;;;;;;-145.41;100.00;58600.66;4966453;28;20401;-79
2023/05/07 03:31:13;;;;;;;6.78;4.75;;;;;;;-145.41;100.00;58600.66;4980860;28;20035;-79
2023/05/07 03:33:50;;;;;;;7.40;4.93;;;;;;;-145.41;100.00;58600.66;4966997;28;20042;-79
2023/05/07 03:36:16;;;;;;;8.82;6.50;;;;;;;-145.41;100.00;58600.66;4983005;28;20529;-78
2023/05/07 03:38:41;;;;;;;7.95;5.38;;;;;;;-145.41;100.00;58600.66;4982531;28;20039;-79
2023/05/07 03:41:07;;;;;;;7.75;5.55;;;;;;;-145.41;100.00;58600.66;4973113;28;20034;-79
2023/05/07 03:43:33;;;;;;;7.95;5.20;;;;;;;-145.41;100.00;58600.66;4972515;28;20038;-78
2023/05/07 03:46:04;;;;;;;9.07;6.03;;;;;;;-145.41;100.00;58600.66;4971737;28;20062;-78
2023/05/07 03:48:29;;;;;;;7.38;5.57;;;;;;;-145.41;100.00;58600.66;4965851;28;20116;-78
2023/05/07 03:50:58;;;;;;;8.27;5.72;;;;;;;-145.41;100.00;58600.66;4963323;28;20034;-79
2023/05/07 03:53:26;;;;;;;7.25;5.25;;;;;;;-145.41;100.00;58600.66;4966644;28;20513;-79
2023/05/07 03:55:51;;;;;;;7.90;5.70;;;;;;;-145.41;100.00;58600.66;4967222;28;20109;-78
2023/05/07 03:58:16;;;;;;;6.88;4.82;;;;;;;-145.41;100.00;58600.66;4974367;28;20049;-78
2023/05/07 04:00:42;;;;;;;8.20;5.22;;;;;;;-145.41;100.00;58600.66;4973346;28;20056;-79
2023/05/07 04:03:24;;;;;;;8.07;5.45;;;;;;;-145.41;100.00;58600.66;4976095;28;20054;-79
2023/05/07 04:05:50;;;;;;;8.90;6.35;;;;;;;-145.41;100.00;58600.66;4975801;28;20054;-78
2023/05/07 04:08:16;;;;;;;8.27;5.93;;;;;;;-145.41;100.00;58600.66;4982288;28;20042;-79
2023/05/07 04:10:45;;;;;;;7.90;5.30;;;;;;;-145.41;100.00;58600.66;4970449;28;20046;-79
2023/05/07 04:13:11;;;;;;;8.00;5.68;;;;;;;-145.41;100.00;58600.66;4967900;28;20066;-79
2023/05/07 04:15:37;;;;;;;8.00;5.45;;;;;;;-145.41;100.00;58600.66;4974886;28;20031;-79
2023/05/07 04:18:06;;;;;;;8.18;5.10;;;;;;;-145.41;100.00;58600.66;4971675;28;20042;-79
2023/05/07 04:20:34;;;;;;;7.70;5.57;;;;;;;-145.41;100.00;58600.66;4977458;28;20027;-78
2023/05/07 04:23:02;;;;;;;7.55;5.32;;;;;;;-145.41;100.00;58600.66;4967815;28;20038;-79
2023/05/07 04:25:28;;;;;;;6.95;5.15;;;;;;;-145.41;100.00;58600.66;4971911;28;20045;-79
2023/05/07 04:27:59;;;;;;;8.68;4.80;;;;;;;-145.41;100.00;58600.66;4970312;28;20430;-79
2023/05/07 04:30:26;;;;;;;7.35;5.25;;;;;;;-145.41;100.00;58600.66;4970327;28;20124;-79
2023/05/07 04:32:52;;;;;;;6.35;4.68;;;;;;;-145.41;100.00;58600.66;4977513;28;20493;-79
2023/05/07 04:35:18;;;;;;;6.10;4.20;;;;;;;-145.41;100.00;58600.66;4973468;28;20385;-79
2023/05/07 04:37:44;;;;;;;7.18;4.63;;;;;;;-145.41;100.00;58600.66;4973693;28;20045;-79
2023/05/07 04:40:10;;;;;;;6.28;4.10;;;;;;;-145.41;100.00;58600.66;4969243;28;20035;-79
2023/05/07 04:42:35;;;;;;;8.93;4.32;;;;;;;-145.41;100.00;58600.66;4977585;28;20034;-79
2023/05/07 04:45:02;;;;;;;5.72;3.47;;;;;;;-145.41;100.00;58600.66;4970055;28;20105;-79
2023/05/07 04:47:30;;;;;;;7.20;3.63;;;;;;;-145.41;100.00;58600.66;4966084;28;20405;-79
2023/05/07 04:49:55;;;;;;;5.32;3.70;;;;;;;-145.41;100.00;58600.66;4961278;28;20030;-79
2023/05/07 04:52:20;;;;;;;5.30;3.20;;;;;;;-145.41;100.00;58600.66;4973689;28;20546;-79
2023/05/07 04:54:46;;;;;;;5.03;2.70;;;;;;;-145.41;100.00;58600.66;4967569;28;20046;-79
2023/05/07 04:57:11;;;;;;;5.43;3.45;;;;;;;-145.41;100.00;58600.66;4953656;28;20026;-79
2023/05/07 04:59:37;;;;;;;6.18;3.58;;;;;;;-145.41;100.00;58600.66;4986516;28;20045;-78
2023/05/07 05:02:04;;;;;;;5.75;2.88;;;;;;;-145.41;100.00;58600.66;4969890;28;20157;-79
2023/05/07 05:04:30;;;;;;;5.30;3.03;;;;;;;-145.41;100.00;58600.66;4970419;28;20526;-77
2023/05/07 05:06:56;;;;;;;4.82;2.80;;;;;;;-145.41;100.00;58600.66;4972041;28;20109;-77
2023/05/07 05:09:21;;;;;;;5.05;2.80;;;;;;;-145.41;100.00;58600.66;4966451;28;20033;-77
2023/05/07 05:11:47;;;;;;;4.38;2.92;;;;;;;-145.41;100.00;58600.66;4960232;28;20042;-77
2023/05/07 05:14:12;;;;;;;5.10;3.30;;;;;;;-145.41;100.00;58600.66;4967864;28;20039;-77
2023/05/07 05:16:38;;;;;;;5.00;3.47;;;;;;;-145.41;100.00;58600.66;4975914;28;20579;-77
2023/05/07 05:19:04;;;;;;;7.15;3.50;;;;;;;-145.41;100.00;58600.66;4975045;28;20078;-77
2023/05/07 05:21:33;;;;;;;5.18;3.42;;;;;;;-145.41;100.00;58600.66;4967687;28;20030;-77
2023/05/07 05:24:04;;;;;;;5.32;3.67;;;;;;;-145.41;100.00;58600.66;4985915;28;20098;-77
2023/05/07 05:26:30;;;;;;;6.45;3.40;;;;;;;-145.41;100.00;58600.66;4987158;28;20046;-77
2023/05/07 05:28:56;;;;;;;6.85;3.67;;;;;;;-145.41;100.00;58600.66;4973459;28;20547;-77
2023/05/07 05:31:23;;;;;;;5.10;3.50;;;;;;;-145.41;100.00;58600.66;4977102;28;20026;-77
2023/05/07 05:33:49;;;;;;;7.05;3.83;;;;;;;-145.41;100.00;58600.66;4973787;28;20031;-77
2023/05/07 05:36:16;;;;;;;5.53;4.25;;;;;;;-145.41;100.00;58600.66;4971207;28;20037;-77
2023/05/07 05:38:44;;;;;;;5.60;3.92;;;;;;;-145.41;100.00;58600.66;4977859;28;20095;-77
2023/05/07 05:41:10;;;;;;;6.72;4.30;;;;;;;-145.41;100.00;58600.66;4952752;28;20036;-77
2023/05/07 05:43:36;;;;;;;6.25;4.30;;;;;;;-145.41;100.00;58600.66;4974298;28;20404;-77
2023/05/07 05:46:01;;;;;;;6.43;4.70;;;;;;;-145.41;100.00;58600.66;4968829;28;20464;-77
2023/05/07 05:48:26;;;;;;;6.55;4.55;;;;;;;-145.41;100.00;58600.66;4968978;28;20545;-77
2023/05/07 05:50:52;;;;;;;5.95;4.72;;;;;;;-145.41;100.00;58600.66;4975635;28;20516;-77
2023/05/07 05:53:18;;;;;;;6.78;4.25;;;;;;;-145.41;100.00;58600.66;4974430;28;20498;-77
2023/05/07 05:55:43;;;;;;;7.60;4.95;;;;;;;-145.41;100.00;58600.66;4987395;28;20377;-77
2023/05/07 05:58:10;;;;;;;6.22;4.55;;;;;;;-145.41;100.00;58600.66;4968021;28;20039;-77
2023/05/07 06:00:39;;;;;;;6.97;4.88;;;;;;;-145.41;100.00;58600.66;4972169;28;20082;-77
2023/05/07 06:03:06;;;;;;;7.25;5.05;;;;;;;-145.41;100.00;58600.66;4966315;28;20061;-77
2023/05/07 06:05:31;;;;;;;6.75;4.60;;;;;;;-145.41;100.00;58600.66;4974080;28;20066;-77
2023/05/07 06:07:57;;;;;;;7.60;4.95;;;;;;;-145.41;100.00;58600.66;4980123;28;20039;-77
2023/05/07 06:10:23;;;;;;;7.35;5.22;;;;;;;-145.41;100.00;58600.66;4981856;28;20034;-77
2023/05/07 06:12:49;;;;;;;9.18;5.72;;;;;;;-145.41;100.00;58600.66;4975812;28;20420;-77
2023/05/07 06:15:15;;;;;;;9.15;5.10;;;;;;;-145.41;100.00;58600.66;4976005;28;20053;-77
2023/05/07 06:17:41;;;;;;;7.85;4.97;;;;;;;-145.41;100.00;58600.66;4956993;28;20038;-77
2023/05/07 06:20:08;;;;;;;7.93;5.60;;;;;;;-145.41;100.00;58600.66;4976060;28;20043;-77
2023/05/07 06:22:34;;;;;;;7.25;5.30;;;;;;;-145.41;100.00;58600.66;4971020;28;20052;-77
2023/05/07 06:24:59;;;;;;;9.85;5.68;;;;;;;-145.41;100.00;58600.66;4983189;28;20038;-77
2023/05/07 06:27:25;;;;;;;8.25;5.90;;;;;;;-145.41;100.00;58600.66;4975920;28;20034;-77
2023/05/07 06:29:51;;;;;;;7.78;5.50;;;;;;;-145.41;100.00;58600.66;4981597;28;20027;-77
2023/05/07 06:32:18;;;;;;;7.65;5.80;;;;;;;-145.41;100.00;58600.66;4971767;28;20041;-77
2023/05/07 06:34:44;;;;;;;7.80;5.22;;;;;;;-145.41;100.00;58600.66;4967406;28;20034;-77
2023/05/07 06:37:10;;;;;;;6.20;4.93;;;;;;;-145.41;100.00;58600.66;4953243;28;20027;-78
2023/05/07 06:39:47;;;;;;;7.88;5.40;;;;;;;-145.41;100.00;58600.66;4959433;28;20039;-73
2023/05/07 06:42:12;;;;;;;7.40;5.07;;;;;;;-145.41;100.00;58600.66;4946759;28;20076;-73
2023/05/07 06:44:41;;;;;;;8.80;5.75;;;;;;;-145.41;100.00;58600.66;4964272;28;20035;-73
2023/05/07 06:47:10;;;;;;;8.00;6.00;;;;;;;-145.41;100.00;58600.66;4948327;29;20023;-73
2023/05/07 06:49:37;;;;;;;7.80;5.20;;;;;;;-145.41;100.00;58600.66;4947781;28;20046;-73
2023/05/07 06:52:03;;;;;;;7.60;5.50;;;;;;;-145.41;100.00;58600.66;4960485;28;20039;-73
2023/05/07 06:54:29;;;;;;;9.65;5.63;;;;;;;-145.41;100.00;58600.66;4970375;28;20101;-73
2023/05/07 06:56:55;;;;;;;6.63;5.38;;;;;;;-145.41;100.00;58600.66;4960716;28;20047;-73
2023/05/07 06:59:22;;;;;;;7.25;5.10;;;;;;;-145.41;100.00;58600.66;4947307;28;20038;-73
2023/05/07 07:01:47;;;;;;;6.50;4.63;;;;;;;-145.41;100.00;58600.66;4965484;28;20038;-73
2023/05/07 07:04:13;;;;;;;6.90;5.03;;;;;;;-145.41;100.00;58600.66;4944677;28;20160;-73
2023/05/07 07:06:41;;;;;;;7.32;5.13;;;;;;;-145.41;100.00;58600.66;4963783;28;20037;-73
2023/05/07 07:09:10;;;;;;;5.75;4.80;;;;;;;-145.41;100.00;58600.66;4961395;28;20130;-73
2023/05/07 07:11:35;;;;;;;7.45;5.82;;;;;;;-145.41;100.00;58600.66;4962271;28;20114;-73
2023/05/07 07:14:01;;;;;;;7.50;5.80;;;;;;;-145.41;100.00;58600.66;4963066;28;20518;-73
2023/05/07 07:16:28;;;;;;;7.68;5.55;;;;;;;-145.41;100.00;58600.66;4969074;28;20031;-73
2023/05/07 07:18:54;;;;;;;8.45;6.28;;;;;;;-145.41;100.00;58600.66;4961652;28;20564;-73
2023/05/07 07:21:19;;;;;;;8.23;4.57;;;;;;;-145.41;100.00;58600.66;4961472;28;20054;-73
2023/05/07 07:23:45;;;;;;;6.43;4.80;;;;;;;-145.41;100.00;58600.66;4946218;28;20078;-73
2023/05/07 07:26:11;;;;;;;6.38;4.55;;;;;;;-145.41;100.00;58600.66;4967727;28;20126;-73
2023/05/07 07:28:42;;;;;;;7.28;5.65;;;;;;;-145.41;100.00;58600.66;4962293;28;20046;-73
2023/05/07 07:31:07;;;;;;;6.50;5.20;;;;;;;-145.41;100.00;58600.66;4944186;29;20035;-73
2023/05/07 07:33:33;;;;;;;7.07;5.40;;;;;;;-145.41;100.00;58600.66;4963169;28;20512;-73
2023/05/07 07:35:58;;;;;;;7.32;5.45;;;;;;;-145.41;100.00;58600.66;4955837;28;20035;-74
2023/05/07 07:38:24;;;;;;;9.00;6.82;;;;;;;-145.41;100.00;58600.66;4965601;28;20097;-73
2023/05/07 07:40:50;;;;;;;7.93;5.30;;;;;;;-145.41;100.00;58600.66;4963290;28;20058;-73
2023/05/07 07:43:15;;;;;;;6.88;5.07;;;;;;;-145.41;100.00;58600.66;4944036;28;20035;-73
2023/05/07 07:45:42;;;;;;;9.63;5.60;;;;;;;-145.41;100.00;58600.66;4965701;28;20445;-73
2023/05/07 07:48:07;;;;;;;8.93;5.18;;;;;;;-145.41;100.00;58600.66;4967268;28;20084;-73
2023/05/07 07:50:36;;;;;;;8.35;5.75;;;;;;;-145.41;100.00;58600.66;4964249;28;20042;-73
2023/05/07 07:53:02;;;;;;;7.20;5.68;;;;;;;-145.41;100.00;58600.66;4963706;28;20054;-73
2023/05/07 07:55:28;;;;;;;6.82;5.20;;;;;;;-145.41;100.00;58600.66;4947221;28;20404;-73
2023/05/07 07:57:53;;;;;;;7.35;5.63;;;;;;;-145.41;100.00;58600.66;4961981;28;20042;-73
2023/05/07 08:00:20;;;;;;;6.88;5.47;;;;;;;-145.41;100.00;58600.66;4965217;28;20117;-73
2023/05/07 08:02:50;;;;;;;6.82;5.22;;;;;;;-145.41;100.00;58600.66;4961060;28;20062;-73
2023/05/07 08:05:22;;;;;;;7.28;5.28;;;;;;;-145.41;100.00;58600.66;4962606;28;20042;-73
2023/05/07 08:07:51;;;;;;;7.18;5.13;;;;;;;-145.41;100.00;58600.66;4962572;28;20035;-74
2023/05/07 08:10:22;;;;;;;7.00;4.80;;;;;;;-145.41;100.00;58600.66;4961679;28;20494;-73
2023/05/07 08:12:50;;;;;;;6.20;4.80;;;;;;;-145.41;100.00;58600.66;4966943;28;20034;-73
2023/05/07 08:15:16;;;;;;;9.07;4.75;;;;;;;-145.41;100.00;58600.66;4964721;28;20514;-73
2023/05/07 08:17:43;;;;;;;5.88;4.38;;;;;;;-145.41;100.00;58600.66;4961539;28;20038;-74
2023/05/07 08:20:09;;;;;;;6.05;4.10;;;;;;;-145.41;100.00;58600.66;4960682;28;20443;-73
2023/05/07 08:22:35;;;;;;;8.02;4.22;;;;;;;-145.41;100.00;58600.66;4963698;28;20040;-73
2023/05/07 08:25:01;;;;;;;6.10;3.78;;;;;;;-145.41;100.00;58600.66;4961248;28;20039;-73
2023/05/07 08:27:27;;;;;;;7.00;4.32;;;;;;;-145.41;100.00;58600.66;4963911;28;20482;-73
2023/05/07 08:29:53;;;;;;;5.45;3.60;;;;;;;-145.41;100.00;58600.66;4964261;28;20409;-73
2023/05/07 08:32:21;;;;;;;7.72;4.90;;;;;;;-145.41;100.00;58600.66;4963412;28;20027;-73
2023/05/07 08:34:47;;;;;;;6.47;4.85;;;;;;;-145.41;100.00;58600.66;4961964;28;20177;-73
2023/05/07 08:37:13;;;;;;;6.70;4.63;;;;;;;-145.41;100.00;58600.66;4948895;28;20031;-73
2023/05/07 08:39:39;;;;;;;7.45;4.78;;;;;;;-145.41;100.00;58600.66;4962012;28;20042;-73
2023/05/07 08:42:11;;;;;;;5.93;4.45;;;;;;;-145.41;100.00;58600.66;4959296;28;20031;-73
2023/05/07 08:44:38;;;;;;;6.10;4.30;;;;;;;-145.41;100.00;58600.66;4962847;28;20039;-73
2023/05/07 08:47:07;;;;;;;6.22;5.03;;;;;;;-145.41;100.00;58600.66;4967848;28;20027;-73
2023/05/07 08:49:33;;;;;;;8.07;5.78;;;;;;;-145.41;100.00;58600.66;4963573;28;20091;-73
2023/05/07 08:51:59;;;;;;;6.50;4.72;;;;;;;-145.41;100.00;58600.66;4966290;28;20498;-73
2023/05/07 08:54:25;;;;;;;6.22;5.07;;;;;;;-145.41;100.00;58600.66;4970130;28;20045;-73
2023/05/07 08:56:51;;;;;;;8.40;5.35;;;;;;;-145.41;100.00;58600.66;4966492;28;20058;-73
2023/05/07 08:59:17;;;;;;;6.53;5.53;;;;;;;-145.41;100.00;58600.66;4964096;28;20525;-73
2023/05/07 09:01:44;;;;;;;8.68;5.68;;;;;;;-145.41;100.00;58600.66;4964141;28;20035;-73
2023/05/07 09:04:10;;;;;;;6.90;5.65;;;;;;;-145.41;100.00;58600.66;4964685;28;20038;-73
2023/05/07 09:06:37;;;;;;;8.38;5.97;;;;;;;-145.41;100.00;58600.66;4974806;28;20502;-73
2023/05/07 09:09:05;;;;;;;6.82;5.32;;;;;;;-145.41;100.00;58600.66;4963046;28;20046;-73
2023/05/07 09:11:31;;;;;;;7.97;6.53;;;;;;;-145.41;100.00;58600.66;4965455;28;20030;-73
2023/05/07 09:14:01;;;;;;;6.90;5.60;;;;;;;-145.41;100.00;58600.66;4962348;28;20031;-73
2023/05/07 09:16:30;;;;;;;7.53;6.13;;;;;;;-145.41;100.00;58600.66;4973146;28;20079;-73
2023/05/07 09:18:58;;;;;;;7.80;5.40;;;;;;;-145.41;100.00;58600.66;4962545;28;20462;-73
2023/05/07 09:21:24;;;;;;;8.15;5.97;;;;;;;-145.41;100.00;58600.66;4964750;28;20038;-73
2023/05/07 09:23:53;;;;;;;8.18;6.30;;;;;;;-145.41;100.00;58600.66;4947560;28;20447;-73
2023/05/07 09:26:24;;;;;;;8.57;6.40;;;;;;;-145.41;100.00;58600.66;4969558;28;20031;-73
2023/05/07 09:28:51;;;;;;;8.27;5.57;;;;;;;-145.41;100.00;58600.66;4965394;28;20049;-73
2023/05/07 09:31:16;;;;;;;8.10;5.97;;;;;;;-145.41;100.00;58600.66;4948693;28;20121;-73
2023/05/07 09:33:42;;;;;;;7.13;5.95;;;;;;;-145.41;100.00;58600.66;4962788;28;20070;-73
2023/05/07 09:36:10;;;;;;;7.97;6.20;;;;;;;-145.41;100.00;58600.66;4970509;28;20031;-73
2023/05/07 09:38:38;;;;;;;8.98;6.70;;;;;;;-145.41;100.00;58600.66;4964305;28;20115;-73
2023/05/07 09:41:11;;;;;;;6.93;5.90;;;;;;;-145.41;100.00;58600.66;4945603;28;20118;-73
2023/05/07 09:43:57;;;;;;;7.55;6.40;;;;;;;-145.41;100.00;58600.66;4961733;28;20122;-73
2023/05/07 09:46:31;;;;;;;6.22;5.10;;;;;;;-145.41;100.00;58600.66;4965568;28;20026;-73
2023/05/07 09:49:01;;;;;;;7.05;5.35;;;;;;;-145.41;100.00;58600.66;4964139;28;20035;-73
2023/05/07 09:51:45;;;;;;;6.90;5.38;;;;;;;-145.41;100.00;58600.66;4963320;28;20409;-73
2023/05/07 09:54:11;;;;;;;7.55;5.85;;;;;;;-145.41;100.00;58600.66;4962287;28;20035;-73
2023/05/07 09:56:41;;;;;;;7.47;5.57;;;;;;;-145.41;100.00;58600.66;4966052;28;20038;-73
2023/05/07 09:59:08;;;;;;;6.50;5.22;;;;;;;-145.41;100.00;58600.66;4962346;28;20054;-73
2023/05/07 10:01:36;;;;;;;6.63;5.25;;;;;;;-145.41;100.00;58600.66;4968575;28;20505;-73
2023/05/07 10:04:03;;;;;;;6.93;4.97;;;;;;;-145.41;100.00;58600.66;4963615;28;20410;-73
2023/05/07 10:06:30;;;;;;;6.25;4.95;;;;;;;-145.41;100.00;58600.66;4964533;28;20026;-73
2023/05/07 10:08:56;;;;;;;6.47;4.05;;;;;;;-145.41;100.00;58600.66;4966268;28;20035;-74
2023/05/07 10:11:22;;;;;;;5.28;3.90;;;;;;;-145.41;100.00;58600.66;4950008;28;20038;-73
2023/05/07 10:13:48;;;;;;;6.15;3.63;;;;;;;-145.41;100.00;58600.66;4966313;28;20048;-73
2023/05/07 10:16:14;;;;;;;4.38;2.85;;;;;;;-145.41;100.00;58600.66;4962801;28;20031;-73
2023/05/07 10:18:45;;;;;;;5.35;3.38;;;;;;;-145.41;100.00;58600.66;4964524;28;20058;-73
2023/05/07 10:21:23;;;;;;;5.40;3.00;;;;;;;-145.41;100.00;58600.66;4947665;28;20069;-73
2023/05/07 10:23:58;;;;;;;5.22;3.33;;;;;;;-145.41;100.00;58600.66;4946576;28;20039;-73
2023/05/07 10:26:25;;;;;;;4.72;3.30;;;;;;;-145.41;100.00;58600.66;4961138;28;20031;-73
2023/05/07 10:28:56;;;;;;;6.05;3.42;;;;;;;-145.41;100.00;58600.66;4961569;28;20031;-73
2023/05/07 10:31:55;;;;;;;4.70;2.90;;;;;;;-145.41;100.00;58600.66;4971827;28;20530;-73
2023/05/07 10:34:26;;;;;;;4.93;3.03;;;;;;;-145.41;100.00;58600.66;4962202;28;20027;-73
2023/05/07 10:36:52;;;;;;;5.85;3.60;;;;;;;-145.41;100.00;58600.66;4960311;28;20105;-73
2023/05/07 10:39:20;;;;;;;4.82;3.00;;;;;;;-145.41;100.00;58600.66;4962698;28;20502;-73
2023/05/07 10:41:46;;;;;;;5.07;3.13;;;;;;;-145.41;100.00;58600.66;4961649;28;20053;-73
2023/05/07 10:44:11;;;;;;;4.72;3.13;;;;;;;-145.41;100.00;58600.66;4966920;28;20494;-73
2023/05/07 10:46:37;;;;;;;3.97;2.90;;;;;;;-145.41;100.00;58600.66;4964902;28;20027;-73
2023/05/07 10:49:14;;;;;;;5.20;3.10;;;;;;;-145.41;100.00;58600.66;4961920;28;20039;-73
2023/05/07 10:52:13;;;;;;;4.03;2.65;;;;;;;-145.41;100.00;58600.66;4963644;28;20083;-73
2023/05/07 10:54:39;;;;;;;4.63;2.80;;;;;;;-145.41;100.00;58600.66;4950398;28;20034;-73
2023/05/07 10:57:31;;;;;;;4.18;2.75;;;;;;;-145.41;100.00;58600.66;4962726;28;20030;-74
2023/05/07 10:59:58;;;;;;;4.72;2.70;;;;;;;-145.41;100.00;58600.66;4961657;28;20126;-73
2023/05/07 11:02:58;;;;;;;3.33;2.10;;;;;;;-145.41;100.00;58600.66;4945972;28;20038;-73
2023/05/07 11:05:24;;;;;;;3.80;2.47;;;;;;;-145.41;100.00;58600.66;4964344;28;20035;-73
2023/05/07 11:08:10;;;;;;;3.90;2.05;;;;;;;-145.41;100.00;58600.66;4947274;28;20031;-73